createdAt,value
2023-01-03T00:01:59.523Z,79.83
2023-01-03T00:04:27.195Z,77.60
2023-01-03T00:06:55.342Z,79.17
2023-01-03T00:09:24.800Z,78.29
2023-01-03T00:12:12.173Z,76.38
2023-01-03T00:14:41.773Z,76.14
2023-01-03T00:17:12.315Z,84.37
2023-01-03T00:19:41.977Z,87.29
2023-01-03T00:22:10.695Z,78.98
2023-01-03T00:24:38.876Z,84.80
2023-01-03T00:27:06.643Z,79.02
2023-01-03T00:29:34.562Z,79.62
2023-01-03T00:32:02.167Z,73.27
2023-01-03T00:34:31.186Z,74.19
2023-01-03T00:36:58.852Z,70.39
2023-01-03T00:39:30.348Z,73.13
2023-01-03T00:41:57.871Z,73.44
2023-01-03T00:44:25.566Z,73.29
2023-01-03T00:46:53.159Z,76.69
2023-01-03T00:49:20.818Z,73.48
2023-01-03T00:51:50.158Z,77.00
2023-01-03T00:54:17.827Z,75.40
2023-01-03T00:56:47.080Z,75.93
2023-01-03T00:59:16.360Z,75.51
2023-01-03T01:01:47.866Z,76.09
2023-01-03T01:04:22.431Z,75.54
2023-01-03T01:06:54.341Z,76.01
2023-01-03T01:09:23.511Z,76.28
2023-01-03T01:11:51.332Z,78.17
2023-01-03T01:14:23.068Z,78.93
2023-01-03T01:16:53.558Z,79.96
2023-01-03T01:19:23.439Z,78.29
2023-01-03T01:21:52.609Z,79.41
2023-01-03T01:24:20.879Z,79.38
2023-01-03T01:26:48.898Z,79.72
2023-01-03T01:29:17.748Z,79.60
2023-01-03T01:31:46.363Z,78.27
2023-01-03T01:34:14.994Z,80.30
2023-01-03T01:36:43.834Z,80.24
2023-01-03T01:39:14.443Z,80.56
2023-01-03T01:42:00.559Z,79.65
2023-01-03T01:44:48.506Z,80.74
2023-01-03T01:47:20.839Z,80.05
2023-01-03T01:49:52.590Z,78.75
2023-01-03T01:52:21.823Z,79.54
2023-01-03T01:54:54.357Z,78.03
2023-01-03T01:57:25.335Z,77.58
2023-01-03T01:59:52.771Z,78.18
2023-01-03T02:02:22.782Z,77.38
2023-01-03T02:04:54.334Z,77.56
2023-01-03T02:07:23.127Z,77.70
2023-01-03T02:09:55.948Z,77.11
2023-01-03T02:12:47.762Z,77.90
2023-01-03T02:15:26.324Z,78.40
2023-01-03T02:18:11.070Z,77.45
2023-01-03T02:21:00.123Z,78.63
2023-01-03T02:24:01.979Z,78.17
2023-01-03T02:26:45.081Z,76.53
2023-01-03T02:29:43.319Z,76.93
2023-01-03T02:32:16.728Z,77.10
2023-01-03T02:34:50.456Z,77.02
2023-01-03T02:37:28.186Z,77.50
2023-01-03T02:40:02.357Z,76.54
2023-01-03T02:42:53.648Z,75.60
2023-01-03T02:45:35.857Z,76.83
2023-01-03T02:48:11.104Z,75.16
2023-01-03T02:50:46.266Z,73.56
2023-01-03T02:53:17.819Z,73.16
2023-01-03T02:55:45.827Z,73.12
2023-01-03T02:58:17.894Z,73.09
2023-01-03T03:00:50.304Z,73.30
2023-01-03T03:03:23.046Z,73.67
2023-01-03T03:05:55.145Z,74.58
2023-01-03T03:08:22.572Z,74.69
2023-01-03T03:11:08.037Z,74.68
2023-01-03T03:13:39.731Z,75.63
2023-01-03T03:16:12.696Z,75.50
2023-01-03T03:18:50.267Z,74.20
2023-01-03T03:21:37.746Z,75.39
2023-01-03T03:24:29.883Z,74.44
2023-01-03T03:26:59.909Z,74.57
2023-01-03T03:29:28.943Z,75.40
2023-01-03T03:31:57.395Z,73.79
2023-01-03T03:34:28.745Z,73.75
2023-01-03T03:37:00.797Z,74.80
2023-01-03T03:39:49.372Z,75.57
2023-01-03T03:42:41.203Z,75.85
2023-01-03T03:45:13.606Z,75.96
2023-01-03T03:47:47.370Z,75.27
2023-01-03T03:50:23.381Z,73.57
2023-01-03T03:52:54.668Z,75.49
2023-01-03T03:55:27.583Z,74.48
2023-01-03T03:57:59.711Z,75.29
2023-01-03T04:00:32.865Z,75.77
2023-01-03T04:03:03.183Z,75.27
2023-01-03T04:05:35.668Z,74.11
2023-01-03T04:08:03.315Z,72.55
2023-01-03T04:10:37.214Z,71.82
2023-01-03T04:13:05.632Z,71.87
2023-01-03T04:15:33.069Z,71.41
2023-01-03T04:18:01.877Z,72.19
2023-01-03T04:20:29.539Z,73.56
2023-01-03T04:22:58.307Z,72.44
2023-01-03T04:25:25.959Z,73.12
2023-01-03T04:27:53.353Z,72.20
2023-01-03T04:30:21.071Z,72.06
2023-01-03T04:32:48.478Z,71.99
2023-01-03T04:35:16.012Z,76.34
2023-01-03T04:37:43.406Z,75.38
2023-01-03T04:40:12.934Z,76.34
2023-01-03T04:42:57.688Z,75.76
2023-01-03T04:45:25.182Z,74.57
2023-01-03T04:47:54.001Z,75.39
2023-01-03T04:50:21.431Z,73.46
2023-01-03T04:52:48.902Z,73.40
2023-01-03T04:55:17.752Z,74.84
2023-01-03T04:57:45.193Z,73.91
2023-01-03T05:00:13.457Z,73.00
2023-01-03T05:02:41.114Z,74.49
2023-01-03T05:05:09.954Z,72.36
2023-01-03T05:07:37.585Z,72.06
2023-01-03T05:10:05.446Z,72.64
2023-01-03T05:12:34.209Z,73.00
2023-01-03T05:15:01.655Z,72.29
2023-01-03T05:17:29.105Z,73.72
2023-01-03T05:20:13.969Z,72.73
2023-01-03T05:22:58.642Z,75.24
2023-01-03T05:25:43.564Z,74.41
2023-01-03T05:28:17.303Z,74.31
2023-01-03T05:30:45.413Z,74.68
2023-01-03T05:33:12.925Z,74.58
2023-01-03T05:35:40.359Z,74.96
2023-01-03T05:38:07.835Z,75.73
2023-01-03T05:40:41.030Z,76.93
2023-01-03T05:43:09.056Z,76.96
2023-01-03T05:45:38.111Z,76.18
2023-01-03T05:48:06.564Z,77.73
2023-01-03T05:50:34.105Z,77.83
2023-01-03T05:53:01.689Z,77.74
2023-01-03T05:55:29.078Z,76.24
2023-01-03T05:57:56.498Z,75.75
2023-01-03T06:00:24.103Z,76.67
2023-01-03T06:02:52.873Z,78.10
2023-01-03T06:05:20.324Z,75.22
2023-01-03T06:07:47.788Z,77.18
2023-01-03T06:10:15.190Z,76.55
2023-01-03T06:12:42.672Z,75.07
2023-01-03T06:15:10.902Z,76.24
2023-01-03T06:17:57.468Z,77.12
2023-01-03T06:20:27.549Z,76.53
2023-01-03T06:22:55.883Z,75.98
2023-01-03T06:25:23.542Z,75.99
2023-01-03T06:27:51.033Z,75.65
2023-01-03T06:30:18.560Z,75.12
2023-01-03T06:32:46.051Z,75.12
2023-01-03T06:35:13.892Z,75.15
2023-01-03T06:37:42.938Z,77.65
2023-01-03T06:40:11.465Z,77.04
2023-01-03T06:42:43.615Z,77.31
2023-01-03T06:45:31.473Z,78.06
2023-01-03T06:48:16.997Z,77.71
2023-01-03T06:51:02.232Z,77.70
2023-01-03T06:53:35.850Z,79.72
2023-01-03T06:56:04.006Z,78.73
2023-01-03T06:58:31.437Z,77.35
2023-01-03T07:01:02.560Z,76.44
2023-01-03T07:03:30.406Z,77.01
2023-01-03T07:05:57.821Z,77.25
2023-01-03T07:08:25.323Z,76.92
2023-01-03T07:10:55.167Z,81.52
2023-01-03T07:13:39.970Z,83.74
2023-01-03T07:16:07.966Z,81.13
2023-01-03T07:18:35.438Z,79.60
2023-01-03T07:21:06.587Z,79.95
2023-01-03T07:23:34.147Z,81.60
2023-01-03T07:26:02.936Z,79.95
2023-01-03T07:28:30.390Z,80.45
2023-01-03T07:31:01.667Z,79.34
2023-01-03T07:33:29.505Z,78.04
2023-01-03T07:36:03.620Z,76.21
2023-01-03T07:38:35.232Z,76.84
2023-01-03T07:41:05.264Z,79.19
2023-01-03T07:43:37.583Z,78.87
2023-01-03T07:46:11.066Z,81.56
2023-01-03T07:48:39.434Z,80.04
2023-01-03T07:51:07.730Z,78.12
2023-01-03T07:53:36.150Z,77.20
2023-01-03T07:56:12.601Z,77.24
2023-01-03T07:58:41.797Z,76.73
2023-01-03T08:01:11.026Z,78.18
2023-01-03T08:03:39.717Z,76.96
2023-01-03T08:06:09.808Z,75.57
2023-01-03T08:08:38.412Z,77.16
2023-01-03T08:11:25.174Z,74.94
2023-01-03T08:13:53.020Z,76.84
2023-01-03T08:16:20.824Z,77.27
2023-01-03T08:18:48.282Z,76.54
2023-01-03T08:21:16.851Z,77.22
2023-01-03T08:23:44.665Z,75.85
2023-01-03T08:26:14.786Z,76.55
2023-01-03T08:28:43.714Z,77.90
2023-01-03T08:31:13.556Z,76.16
2023-01-03T08:33:44.657Z,77.30
2023-01-03T08:36:13.738Z,77.03
2023-01-03T08:38:45.229Z,80.03
2023-01-03T08:41:17.764Z,76.74
2023-01-03T08:43:47.140Z,75.26
2023-01-03T08:46:17.303Z,75.94
2023-01-03T08:48:45.355Z,77.66
2023-01-03T08:51:12.829Z,77.89
2023-01-03T08:53:40.331Z,76.02
2023-01-03T08:56:08.764Z,73.55
2023-01-03T08:58:37.540Z,76.08
2023-01-03T09:01:06.785Z,74.22
2023-01-03T09:03:34.480Z,74.56
2023-01-03T09:06:03.466Z,75.43
2023-01-03T09:08:31.213Z,74.34
2023-01-03T09:10:58.977Z,74.42
2023-01-03T09:13:26.717Z,74.16
2023-01-03T09:16:02.457Z,73.22
2023-01-03T09:18:30.188Z,74.50
2023-01-03T09:20:57.654Z,75.35
2023-01-03T09:23:25.131Z,74.24
2023-01-03T09:25:52.717Z,74.84
2023-01-03T09:28:20.132Z,73.86
2023-01-03T09:30:48.352Z,73.95
2023-01-03T09:33:17.127Z,75.69
2023-01-03T09:35:44.552Z,75.40
2023-01-03T09:38:12.182Z,72.98
2023-01-03T09:40:42.492Z,74.60
2023-01-03T09:43:21.447Z,74.83
2023-01-03T09:45:55.051Z,76.55
2023-01-03T09:48:30.308Z,74.47
2023-01-03T09:51:18.444Z,73.81
2023-01-03T09:54:02.594Z,72.43
2023-01-03T09:56:47.489Z,93.49
2023-01-03T09:59:36.387Z,72.02
2023-01-03T10:02:50.503Z,87.01
2023-01-03T10:05:32.460Z,80.79
2023-01-03T10:08:20.289Z,73.80
2023-01-03T10:10:58.707Z,72.88
2023-01-03T10:13:39.682Z,73.67
2023-01-03T10:16:14.321Z,70.40
2023-01-03T10:18:56.601Z,70.70
2023-01-03T10:21:34.330Z,69.76
2023-01-03T10:24:02.175Z,70.16
2023-01-03T10:26:33.116Z,70.72
2023-01-03T10:29:01.984Z,71.72
2023-01-03T10:31:44.291Z,71.96
2023-01-03T10:34:12.270Z,71.99
2023-01-03T10:36:41.166Z,74.16
2023-01-03T10:39:10.806Z,75.79
2023-01-03T10:41:44.305Z,74.25
2023-01-03T10:44:25.449Z,74.39
2023-01-03T10:46:55.416Z,76.05
2023-01-03T10:49:27.961Z,75.62
2023-01-03T10:52:01.585Z,75.49
2023-01-03T10:54:45.640Z,74.93
2023-01-03T10:57:39.181Z,75.46
2023-01-03T11:00:30.904Z,73.97
2023-01-03T11:03:10.881Z,74.01
2023-01-03T11:05:39.881Z,76.09
2023-01-03T11:08:16.765Z,78.99
2023-01-03T11:10:54.457Z,77.55
2023-01-03T11:13:30.131Z,81.02
2023-01-03T11:15:59.626Z,81.03
2023-01-03T11:18:29.093Z,81.04
2023-01-03T11:21:07.154Z,79.85
2023-01-03T11:23:51.263Z,79.07
2023-01-03T11:26:29.192Z,79.18
2023-01-03T11:29:09.961Z,77.73
2023-01-03T11:31:49.439Z,78.70
2023-01-03T11:35:20.644Z,77.02
2023-01-03T11:37:42.309Z,76.88
2023-01-03T11:40:21.966Z,77.96
2023-01-03T11:43:04.728Z,75.22
2023-01-03T11:45:48.798Z,74.95
2023-01-03T11:48:33.658Z,74.65
2023-01-03T11:51:13.223Z,75.76
2023-01-03T11:53:56.619Z,74.76
2023-01-03T11:56:30.565Z,72.73
2023-01-03T11:59:19.987Z,76.45
2023-01-03T12:02:04.815Z,77.31
2023-01-03T12:04:39.560Z,73.38
2023-01-03T12:07:46.263Z,73.94
2023-01-03T12:10:08.789Z,75.55
2023-01-03T12:12:56.486Z,76.43
2023-01-03T12:15:27.634Z,77.67
2023-01-03T12:18:01.704Z,77.74
2023-01-03T12:20:33.647Z,76.21
2023-01-03T12:23:05.891Z,74.83
2023-01-03T12:25:37.629Z,74.66
2023-01-03T12:28:16.420Z,74.38
2023-01-03T12:30:48.424Z,73.62
2023-01-03T12:33:30.897Z,73.93
2023-01-03T12:36:02.595Z,74.23
2023-01-03T12:38:33.117Z,73.44
2023-01-03T12:41:07.835Z,73.32
2023-01-03T12:43:45.827Z,73.70
2023-01-03T12:46:18.343Z,73.67
2023-01-03T12:48:59.467Z,74.07
2023-01-03T12:51:28.086Z,74.10
2023-01-03T12:54:06.439Z,74.78
2023-01-03T12:56:50.642Z,74.91
2023-01-03T12:59:39.193Z,73.08
2023-01-03T13:02:17.864Z,70.21
2023-01-03T13:04:46.297Z,68.93
2023-01-03T13:07:19.044Z,71.84
2023-01-03T13:09:51.526Z,70.64
2023-01-03T13:12:27.103Z,69.93
2023-01-03T13:14:57.872Z,69.88
2023-01-03T13:17:26.942Z,69.52
2023-01-03T13:19:59.812Z,68.47
2023-01-03T13:22:44.195Z,69.07
2023-01-03T13:25:38.636Z,69.27
2023-01-03T13:28:29.713Z,68.37
2023-01-03T13:31:37.532Z,67.33
2023-01-03T13:34:17.507Z,68.12
2023-01-03T13:37:17.920Z,67.82
2023-01-03T13:40:03.797Z,69.19
2023-01-03T13:42:36.471Z,69.38
2023-01-03T13:45:56.129Z,69.96
2023-01-03T13:48:39.509Z,67.96
2023-01-03T13:51:26.615Z,69.49
2023-01-03T13:54:00.226Z,72.10
2023-01-03T13:56:29.978Z,70.56
2023-01-03T13:59:09.480Z,70.69
2023-01-03T14:01:55.148Z,72.26
2023-01-03T14:04:41.863Z,71.52
2023-01-03T14:07:30.577Z,70.20
2023-01-03T14:10:12.610Z,68.25
2023-01-03T14:13:11.700Z,69.40
2023-01-03T14:15:39.306Z,82.94
2023-01-03T14:18:20.727Z,73.48
2023-01-03T14:20:52.218Z,70.11
2023-01-03T14:26:14.684Z,75.46
2023-01-03T14:28:42.201Z,71.67
2023-01-03T14:31:19.659Z,70.76
2023-01-03T14:33:52.702Z,70.94
2023-01-03T14:36:21.487Z,70.58
2023-01-03T14:38:50.701Z,73.59
2023-01-03T14:41:27.695Z,72.21
2023-01-03T14:44:03.157Z,73.03
2023-01-03T14:46:32.322Z,71.54
2023-01-03T14:49:03.634Z,75.14
2023-01-03T14:51:35.073Z,69.65
2023-01-03T14:54:04.114Z,69.72
2023-01-03T14:56:32.758Z,69.63
2023-01-03T14:59:01.889Z,69.55
2023-01-03T15:01:30.512Z,70.55
2023-01-03T15:03:59.081Z,70.13
2023-01-03T15:06:28.993Z,70.25
2023-01-03T15:09:00.154Z,70.09
2023-01-03T15:11:31.872Z,69.81
2023-01-03T15:14:03.156Z,71.83
2023-01-03T15:16:33.936Z,71.37
2023-01-03T15:19:05.146Z,72.66
2023-01-03T15:21:33.040Z,71.11
2023-01-03T15:24:02.061Z,71.29
2023-01-03T15:26:39.795Z,71.35
2023-01-03T15:29:13.623Z,71.85
2023-01-03T15:31:50.232Z,73.64
2023-01-03T15:34:19.971Z,76.18
2023-01-03T15:36:52.744Z,77.76
2023-01-03T15:39:23.600Z,75.31
2023-01-03T15:45:12.323Z,74.46
2023-01-03T15:47:40.772Z,77.28
2023-01-03T15:50:15.005Z,77.03
2023-01-03T15:52:42.527Z,75.42
2023-01-03T15:55:13.223Z,77.61
2023-01-03T15:57:41.162Z,76.19
2023-01-03T16:00:16.266Z,74.05
2023-01-03T16:02:43.790Z,73.18
2023-01-03T16:05:19.704Z,72.95
2023-01-03T16:07:48.982Z,73.59
2023-01-03T16:10:18.025Z,73.89
2023-01-03T16:12:45.489Z,73.09
2023-01-03T16:15:18.825Z,73.49
2023-01-03T16:17:46.994Z,74.14
2023-01-03T16:20:17.816Z,73.67
2023-01-03T16:22:55.860Z,74.89
2023-01-03T16:25:29.418Z,74.04
2023-01-03T16:27:56.918Z,73.73
2023-01-03T16:30:24.984Z,73.13
2023-01-03T16:32:52.811Z,73.55
2023-01-03T16:35:21.454Z,80.60
2023-01-03T16:37:48.907Z,76.38
2023-01-03T16:40:18.491Z,74.92
2023-01-03T16:42:47.455Z,75.65
2023-01-03T16:45:15.179Z,74.76
2023-01-03T16:47:44.712Z,74.48
2023-01-03T16:50:16.340Z,75.37
2023-01-03T16:52:47.323Z,74.96
2023-01-03T16:55:17.169Z,75.43
2023-01-03T16:57:48.832Z,75.18
2023-01-03T17:00:24.873Z,75.40
2023-01-03T17:02:52.608Z,75.59
2023-01-03T17:05:20.212Z,76.65
2023-01-03T17:07:51.285Z,77.03
2023-01-03T17:10:26.568Z,76.78
2023-01-03T17:12:54.835Z,75.87
2023-01-03T17:15:23.543Z,76.14
2023-01-03T17:17:51.119Z,75.33
2023-01-03T17:20:20.679Z,75.53
2023-01-03T17:22:51.686Z,76.02
2023-01-03T17:25:19.138Z,75.35
2023-01-03T17:27:50.812Z,76.82
2023-01-03T17:30:20.646Z,76.45
2023-01-03T17:32:49.462Z,77.25
2023-01-03T17:35:18.224Z,77.69
2023-01-03T17:38:23.399Z,77.80
2023-01-03T17:40:34.677Z,77.07
2023-01-03T17:43:02.769Z,76.92
2023-01-03T17:45:48.541Z,77.39
2023-01-03T17:48:35.157Z,77.20
2023-01-03T17:51:03.166Z,77.31
2023-01-03T17:53:30.739Z,76.96
2023-01-03T17:55:58.150Z,78.37
2023-01-03T17:58:31.932Z,78.56
2023-01-03T18:00:59.540Z,77.40
2023-01-03T18:03:29.076Z,76.36
2023-01-03T18:05:56.942Z,76.68
2023-01-03T18:08:25.943Z,77.00
2023-01-03T18:10:53.666Z,76.63
2023-01-03T18:13:24.765Z,76.10
2023-01-03T18:15:53.459Z,76.88
2023-01-03T18:18:23.189Z,77.62
2023-01-03T18:20:53.817Z,78.34
2023-01-03T18:23:27.928Z,77.52
2023-01-03T18:25:57.587Z,77.25
2023-01-03T18:28:28.793Z,76.99
2023-01-03T18:30:57.438Z,79.27
2023-01-03T18:33:25.332Z,78.11
2023-01-03T18:35:55.849Z,80.58
2023-01-03T18:38:26.341Z,78.87
2023-01-03T18:41:00.687Z,79.54
2023-01-03T18:43:31.713Z,79.06
2023-01-03T18:45:59.190Z,78.95
2023-01-03T18:48:26.732Z,78.89
2023-01-03T18:50:59.538Z,78.92
2023-01-03T18:53:31.038Z,80.54
2023-01-03T18:55:58.712Z,79.24
2023-01-03T18:58:32.682Z,78.45
2023-01-03T19:01:00.478Z,79.14
2023-01-03T19:03:29.717Z,79.92
2023-01-03T19:05:59.600Z,81.84
2023-01-03T19:08:30.284Z,79.86
2023-01-03T19:11:00.118Z,78.39
2023-01-03T19:13:30.328Z,77.91
2023-01-03T19:15:58.105Z,77.47
2023-01-03T19:18:25.624Z,77.72
2023-01-03T19:20:53.031Z,77.77
2023-01-03T19:23:24.980Z,78.90
2023-01-03T19:25:52.511Z,78.82
2023-01-03T19:28:23.806Z,79.29
2023-01-03T19:30:52.100Z,77.92
2023-01-03T19:33:21.190Z,79.85
2023-01-03T19:35:49.695Z,77.98
2023-01-03T19:38:17.364Z,78.21
2023-01-03T19:40:46.330Z,80.35
2023-01-03T19:43:21.910Z,78.57
2023-01-03T19:45:50.084Z,78.76
2023-01-03T19:48:19.731Z,78.91
2023-01-03T19:50:48.116Z,78.17
2023-01-03T19:53:15.591Z,78.50
2023-01-03T19:55:46.653Z,78.38
2023-01-03T19:58:18.430Z,77.17
2023-01-03T20:00:48.279Z,77.59
2023-01-03T20:03:24.158Z,77.69
2023-01-03T20:05:51.746Z,77.24
2023-01-03T20:08:19.149Z,77.65
2023-01-03T20:10:48.299Z,77.19
2023-01-03T20:13:19.039Z,78.69
2023-01-03T20:15:48.340Z,77.10
2023-01-03T20:18:25.617Z,77.74
2023-01-03T20:20:54.264Z,77.36
2023-01-03T20:23:21.904Z,78.82
2023-01-03T20:25:51.716Z,77.66
2023-01-03T20:28:22.855Z,76.94
2023-01-03T20:30:50.268Z,77.66
2023-01-03T20:33:17.674Z,77.58
2023-01-03T20:38:33.382Z,77.13
2023-01-03T20:41:02.122Z,80.36
2023-01-03T20:43:29.544Z,79.86
2023-01-03T20:45:58.807Z,77.75
2023-01-03T20:48:26.934Z,78.76
2023-01-03T20:50:54.555Z,79.73
2023-01-03T20:53:24.140Z,78.72
2023-01-03T20:55:52.938Z,78.39
2023-01-03T20:58:25.083Z,76.90
2023-01-03T21:00:58.145Z,78.27
2023-01-03T21:03:31.375Z,78.43
2023-01-03T21:05:59.079Z,80.55
2023-01-03T21:08:44.288Z,80.12
2023-01-03T21:11:12.217Z,78.19
2023-01-03T21:13:42.175Z,78.83
2023-01-03T21:16:20.835Z,80.09
2023-01-03T21:18:48.337Z,77.06
2023-01-03T21:21:19.402Z,77.94
2023-01-03T21:23:47.172Z,79.23
2023-01-03T21:26:14.754Z,91.53
2023-01-03T21:28:43.517Z,91.11
2023-01-03T21:31:17.721Z,78.36
2023-01-03T21:33:45.285Z,78.21
2023-01-03T21:36:19.212Z,77.22
2023-01-03T21:38:50.468Z,79.09
2023-01-03T21:41:18.918Z,81.86
2023-01-03T21:43:47.817Z,83.13
2023-01-03T21:46:17.800Z,77.94
2023-01-03T21:48:45.772Z,71.28
2023-01-03T21:51:16.320Z,74.28
2023-01-03T21:53:46.470Z,78.39
2023-01-03T21:56:20.130Z,76.00
2023-01-03T21:58:49.479Z,82.67
2023-01-03T22:01:18.913Z,80.20
2023-01-03T22:04:04.241Z,76.72
2023-01-03T22:06:31.759Z,75.82
2023-01-03T22:09:04.482Z,77.14
2023-01-03T22:11:32.488Z,77.16
2023-01-03T22:14:02.040Z,76.70
2023-01-03T22:16:29.512Z,77.03
2023-01-03T22:18:56.956Z,79.70
2023-01-03T22:21:26.753Z,79.22
2023-01-03T22:23:55.538Z,78.45
2023-01-03T22:26:25.124Z,79.90
2023-01-03T22:28:55.480Z,79.11
2023-01-03T22:31:24.280Z,78.14
2023-01-03T22:33:53.468Z,77.07
2023-01-03T22:36:21.049Z,78.49
2023-01-03T22:38:48.504Z,78.09
2023-01-03T22:41:17.499Z,77.03
2023-01-03T22:43:46.102Z,80.18
2023-01-03T22:46:15.634Z,79.99
2023-01-03T22:48:45.482Z,79.16
2023-01-03T22:51:14.816Z,79.02
2023-01-03T22:53:44.273Z,78.51
2023-01-03T22:56:15.091Z,77.86
2023-01-03T22:58:42.642Z,78.53
2023-01-03T23:01:12.220Z,79.51
2023-01-03T23:03:40.195Z,78.29
2023-01-03T23:06:13.713Z,79.00
2023-01-03T23:08:42.231Z,79.21
2023-01-03T23:11:33.902Z,78.50
2023-01-03T23:14:04.237Z,79.01
2023-01-03T23:16:32.264Z,79.62
2023-01-03T23:19:00.125Z,78.25
2023-01-03T23:21:28.968Z,79.99
2023-01-03T23:23:56.505Z,79.50
2023-01-03T23:26:24.398Z,80.04
2023-01-03T23:28:55.272Z,80.13
2023-01-03T23:31:22.962Z,82.94
2023-01-03T23:33:50.503Z,81.05
2023-01-03T23:36:18.685Z,81.17
2023-01-03T23:38:47.514Z,80.02
2023-01-03T23:41:15.123Z,80.90
2023-01-03T23:43:42.840Z,79.69
2023-01-03T23:46:16.152Z,80.17
2023-01-03T23:48:43.735Z,80.69
2023-01-03T23:51:12.392Z,79.82
2023-01-03T23:53:41.798Z,81.47
2023-01-03T23:56:13.440Z,82.57
2023-01-03T23:58:40.988Z,82.84
